createdAt,value
2022-09-23T00:00:08.463Z,78.08
2022-09-23T00:01:08.538Z,77.76
2022-09-23T00:02:08.524Z,78.49
2022-09-23T00:03:08.425Z,78.69
2022-09-23T00:04:08.417Z,78.83
2022-09-23T00:05:08.405Z,78.63
2022-09-23T00:06:08.397Z,78.42
2022-09-23T00:07:08.392Z,78.52
2022-09-23T00:08:08.372Z,79.03
2022-09-23T00:09:08.360Z,79.13
2022-09-23T00:10:08.352Z,79.24
2022-09-23T00:11:08.338Z,78.93
2022-09-23T00:12:09.261Z,78.89
2022-09-23T00:13:08.316Z,78.38
2022-09-23T00:14:08.350Z,78.49
2022-09-23T00:15:08.322Z,78.79
2022-09-23T00:16:08.285Z,78.89
2022-09-23T00:17:08.343Z,78.59
2022-09-23T00:18:08.263Z,78.59
2022-09-23T00:19:08.251Z,78.79
2022-09-23T00:20:08.244Z,78.17
2022-09-23T00:21:08.229Z,77.83
2022-09-23T00:22:08.230Z,77.94
2022-09-23T00:23:08.210Z,77.53
2022-09-23T00:24:08.198Z,77.63
2022-09-23T00:25:08.230Z,77.22
2022-09-23T00:26:08.178Z,76.81
2022-09-23T00:27:08.175Z,77.12
2022-09-23T00:28:08.155Z,77.32
2022-09-23T00:29:08.274Z,76.91
2022-09-23T00:30:08.130Z,77.12
2022-09-23T00:31:08.263Z,77.12
2022-09-23T00:32:08.125Z,76.81
2022-09-23T00:33:08.099Z,76.71
2022-09-23T00:34:08.088Z,76.78
2022-09-23T00:35:08.078Z,76.40
2022-09-23T00:36:08.066Z,76.26
2022-09-23T00:37:08.067Z,77.01
2022-09-23T00:38:08.045Z,76.67
2022-09-23T00:39:08.154Z,76.50
2022-09-23T00:40:08.079Z,76.71
2022-09-23T00:41:08.021Z,76.88
2022-09-23T00:42:08.000Z,76.88
2022-09-23T00:43:07.988Z,76.57
2022-09-23T00:44:07.978Z,76.37
2022-09-23T00:45:07.964Z,76.71
2022-09-23T00:46:08.067Z,76.71
2022-09-23T00:47:07.960Z,76.98
2022-09-23T00:48:07.936Z,76.71
2022-09-23T00:49:07.922Z,76.57
2022-09-23T00:50:07.913Z,76.26
2022-09-23T00:51:07.912Z,75.96
2022-09-23T00:52:07.891Z,75.96
2022-09-23T00:53:07.878Z,76.57
2022-09-23T00:54:07.885Z,76.37
2022-09-23T00:55:07.855Z,76.47
2022-09-23T00:56:07.855Z,76.06
2022-09-23T00:57:07.833Z,75.85
2022-09-23T00:58:07.824Z,75.85
2022-09-23T00:59:07.817Z,76.06
2022-09-23T01:00:07.805Z,76.16
2022-09-23T01:01:07.888Z,75.75
2022-09-23T01:02:07.879Z,75.96
2022-09-23T01:03:07.785Z,76.16
2022-09-23T01:04:07.760Z,76.26
2022-09-23T01:05:07.751Z,76.06
2022-09-23T01:06:07.747Z,75.96
2022-09-23T01:07:07.726Z,76.06
2022-09-23T01:08:07.717Z,76.57
2022-09-23T01:09:07.765Z,76.06
2022-09-23T01:10:07.695Z,75.85
2022-09-23T01:11:07.693Z,75.96
2022-09-23T01:12:07.670Z,76.06
2022-09-23T01:13:07.658Z,75.65
2022-09-23T01:14:07.651Z,75.65
2022-09-23T01:15:07.635Z,76.06
2022-09-23T01:16:07.636Z,75.96
2022-09-23T01:17:07.688Z,75.85
2022-09-23T01:18:07.606Z,75.85
2022-09-23T01:19:07.611Z,75.85
2022-09-23T01:20:07.582Z,75.85
2022-09-23T01:21:07.583Z,75.59
2022-09-23T01:22:07.564Z,75.75
2022-09-23T01:23:07.547Z,76.26
2022-09-23T01:24:07.635Z,76.16
2022-09-23T01:25:07.533Z,76.06
2022-09-23T01:26:07.531Z,76.06
2022-09-23T01:27:07.508Z,75.96
2022-09-23T01:28:07.495Z,75.99
2022-09-23T01:29:07.482Z,75.85
2022-09-23T01:30:07.482Z,75.79
2022-09-23T01:31:07.516Z,75.85
2022-09-23T01:32:07.452Z,75.75
2022-09-23T01:33:07.443Z,75.65
2022-09-23T01:34:07.430Z,75.75
2022-09-23T01:35:07.452Z,75.85
2022-09-23T01:36:07.408Z,75.45
2022-09-23T01:37:07.394Z,75.55
2022-09-23T01:38:07.385Z,75.24
2022-09-23T01:39:07.436Z,75.14
2022-09-23T01:40:07.418Z,75.27
2022-09-23T01:41:07.351Z,75.24
2022-09-23T01:42:07.341Z,75.04
2022-09-23T01:43:07.328Z,75.04
2022-09-23T01:44:07.318Z,75.48
2022-09-23T01:45:07.316Z,75.17
2022-09-23T01:46:07.296Z,75.38
2022-09-23T01:47:07.289Z,75.17
2022-09-23T01:48:07.311Z,75.48
2022-09-23T01:49:07.343Z,75.34
2022-09-23T01:50:07.263Z,75.59
2022-09-23T01:51:07.280Z,75.79
2022-09-23T01:52:07.231Z,75.68
2022-09-23T01:53:07.219Z,75.89
2022-09-23T01:54:07.216Z,75.79
2022-09-23T01:55:07.210Z,75.48
2022-09-23T01:56:07.188Z,75.17
2022-09-23T01:57:07.175Z,75.38
2022-09-23T01:58:07.165Z,75.48
2022-09-23T01:59:07.156Z,75.27
2022-09-23T02:00:07.151Z,75.38
2022-09-23T02:01:07.242Z,75.89
2022-09-23T02:02:07.174Z,75.68
2022-09-23T02:03:07.109Z,75.79
2022-09-23T02:04:07.244Z,75.99
2022-09-23T02:05:07.097Z,75.48
2022-09-23T02:06:07.077Z,75.38
2022-09-23T02:07:07.081Z,75.38
2022-09-23T02:08:07.055Z,75.38
2022-09-23T02:09:07.048Z,75.07
2022-09-23T02:10:07.048Z,75.38
2022-09-23T02:11:07.021Z,75.31
2022-09-23T02:12:07.009Z,75.42
2022-09-23T02:13:06.999Z,75.17
2022-09-23T02:14:06.990Z,75.21
2022-09-23T02:15:06.988Z,75.01
2022-09-23T02:16:07.070Z,75.01
2022-09-23T02:17:06.955Z,74.49
2022-09-23T02:18:06.948Z,74.19
2022-09-23T02:19:07.229Z,73.98
2022-09-23T02:20:06.948Z,74.08
2022-09-23T02:21:06.929Z,74.02
2022-09-23T02:22:06.928Z,74.22
2022-09-23T02:23:06.952Z,74.32
2022-09-23T02:24:06.881Z,74.32
2022-09-23T02:25:06.928Z,74.56
2022-09-23T02:26:06.858Z,74.66
2022-09-23T02:27:06.856Z,74.87
2022-09-23T02:28:06.838Z,75.28
2022-09-23T02:29:06.978Z,75.28
2022-09-23T02:30:06.828Z,75.28
2022-09-23T02:31:06.804Z,75.18
2022-09-23T02:32:06.888Z,74.77
2022-09-23T02:33:06.781Z,74.46
2022-09-23T02:34:06.773Z,74.36
2022-09-23T02:35:06.778Z,74.49
2022-09-23T02:36:06.758Z,74.49
2022-09-23T02:37:06.738Z,74.70
2022-09-23T02:38:06.731Z,74.60
2022-09-23T02:39:06.734Z,74.73
2022-09-23T02:40:06.790Z,75.24
2022-09-23T02:41:06.696Z,75.45
2022-09-23T02:42:06.693Z,75.45
2022-09-23T02:43:06.684Z,76.17
2022-09-23T02:44:06.775Z,76.07
2022-09-23T02:45:06.673Z,76.17
2022-09-23T02:46:06.701Z,76.58
2022-09-23T02:47:06.636Z,76.58
2022-09-23T02:48:06.626Z,76.37
2022-09-23T02:49:06.614Z,76.58
2022-09-23T02:50:06.615Z,76.48
2022-09-23T02:51:06.591Z,76.37
2022-09-23T02:52:06.580Z,76.89
2022-09-23T02:53:06.569Z,76.99
2022-09-23T02:54:06.688Z,77.40
2022-09-23T02:55:06.576Z,77.09
2022-09-23T02:56:06.538Z,77.29
2022-09-23T02:57:06.528Z,77.16
2022-09-23T02:58:06.548Z,77.26
2022-09-23T02:59:06.503Z,76.85
2022-09-23T03:00:06.506Z,76.85
2022-09-23T03:01:06.519Z,77.16
2022-09-23T03:02:06.505Z,77.36
2022-09-23T03:03:06.463Z,77.57
2022-09-23T03:04:06.453Z,77.77
2022-09-23T03:05:06.455Z,77.57
2022-09-23T03:06:06.431Z,77.67
2022-09-23T03:07:06.419Z,77.47
2022-09-23T03:08:06.409Z,77.26
2022-09-23T03:09:06.550Z,77.98
2022-09-23T03:10:06.398Z,77.87
2022-09-23T03:11:06.395Z,77.43
2022-09-23T03:12:06.367Z,77.33
2022-09-23T03:13:06.364Z,77.36
2022-09-23T03:14:06.345Z,76.95
2022-09-23T03:15:06.345Z,77.12
2022-09-23T03:16:06.399Z,77.77
2022-09-23T03:17:06.316Z,77.47
2022-09-23T03:18:06.303Z,77.57
2022-09-23T03:19:06.294Z,77.87
2022-09-23T03:20:06.295Z,78.28
2022-09-23T03:21:06.275Z,78.42
2022-09-23T03:22:06.260Z,78.22
2022-09-23T03:23:06.253Z,78.22
2022-09-23T03:24:06.459Z,78.49
2022-09-23T03:25:06.241Z,78.59
2022-09-23T03:26:06.217Z,78.32
2022-09-23T03:27:06.227Z,78.63
2022-09-23T03:28:06.195Z,78.19
2022-09-23T03:29:06.186Z,78.59
2022-09-23T03:30:06.187Z,78.28
2022-09-23T03:31:06.168Z,78.19
2022-09-23T03:32:06.185Z,78.19
2022-09-23T03:33:06.168Z,78.28
2022-09-23T03:34:06.133Z,78.08
2022-09-23T03:35:06.132Z,78.19
2022-09-23T03:36:06.109Z,78.08
2022-09-23T03:37:06.101Z,78.19
2022-09-23T03:38:06.089Z,77.67
2022-09-23T03:39:06.169Z,77.87
2022-09-23T03:40:06.107Z,77.87
2022-09-23T03:41:06.058Z,77.77
2022-09-23T03:42:06.048Z,78.19
2022-09-23T03:43:06.052Z,78.39
2022-09-23T03:44:06.024Z,78.49
2022-09-23T03:45:06.023Z,78.39
2022-09-23T03:46:06.099Z,78.08
2022-09-23T03:47:05.994Z,78.28
2022-09-23T03:48:05.980Z,78.49
2022-09-23T03:49:05.973Z,78.90
2022-09-23T03:50:05.974Z,79.00
2022-09-23T03:51:05.951Z,79.00
2022-09-23T03:52:05.941Z,78.80
2022-09-23T03:53:05.953Z,78.39
2022-09-23T03:54:05.960Z,78.39
2022-09-23T03:55:05.924Z,78.80
2022-09-23T03:56:05.895Z,79.00
2022-09-23T03:57:05.886Z,79.00
2022-09-23T03:58:05.873Z,79.11
2022-09-23T03:59:05.887Z,79.00
2022-09-23T04:00:05.863Z,78.80
2022-09-23T04:01:05.957Z,78.80
2022-09-23T04:02:05.869Z,78.59
2022-09-23T04:03:10.918Z,78.70
2022-09-23T04:04:06.942Z,78.49
2022-09-23T04:05:05.814Z,78.59
2022-09-23T04:06:05.790Z,78.59
2022-09-23T04:07:05.779Z,78.80
2022-09-23T04:08:07.815Z,78.70
2022-09-23T04:09:05.756Z,78.80
2022-09-23T04:10:05.758Z,78.90
2022-09-23T04:11:05.736Z,79.00
2022-09-23T04:12:05.725Z,79.00
2022-09-23T04:13:05.722Z,78.90
2022-09-23T04:14:05.707Z,78.90
2022-09-23T04:15:05.724Z,78.90
2022-09-23T04:16:05.745Z,79.04
2022-09-23T04:17:05.681Z,78.80
2022-09-23T04:18:05.661Z,78.90
2022-09-23T04:19:09.656Z,78.90
2022-09-23T04:20:06.638Z,78.32
2022-09-23T04:21:05.630Z,78.42
2022-09-23T04:22:05.700Z,78.32
2022-09-23T04:23:05.612Z,78.42
2022-09-23T04:24:05.607Z,78.12
2022-09-23T04:25:05.624Z,78.02
2022-09-23T04:26:05.573Z,78.22
2022-09-23T04:27:05.566Z,77.61
2022-09-23T04:28:05.552Z,77.61
2022-09-23T04:29:05.651Z,77.91
2022-09-23T04:30:05.548Z,77.33
2022-09-23T04:31:05.597Z,76.92
2022-09-23T04:32:05.527Z,77.33
2022-09-23T04:33:05.502Z,77.64
2022-09-23T04:34:05.499Z,77.44
2022-09-23T04:35:05.481Z,77.64
2022-09-23T04:36:05.466Z,77.33
2022-09-23T04:37:05.457Z,77.03
2022-09-23T04:38:05.446Z,77.44
2022-09-23T04:39:05.603Z,78.25
2022-09-23T04:40:05.456Z,78.36
2022-09-23T04:41:05.418Z,78.36
2022-09-23T04:42:05.404Z,78.97
2022-09-23T04:43:05.395Z,79.08
2022-09-23T04:44:05.423Z,78.87
2022-09-23T04:45:05.375Z,78.67
2022-09-23T04:46:05.359Z,78.67
2022-09-23T04:47:05.409Z,79.28
2022-09-23T04:48:05.341Z,79.08
2022-09-23T04:49:05.407Z,79.08
2022-09-23T04:50:05.317Z,79.08
2022-09-23T04:51:05.309Z,79.08
2022-09-23T04:52:05.358Z,79.08
2022-09-23T04:53:05.287Z,79.28
2022-09-23T04:54:05.288Z,78.97
2022-09-23T04:55:09.123Z,79.28
2022-09-23T04:56:06.252Z,79.59
2022-09-23T04:57:05.243Z,79.80
2022-09-23T04:58:05.232Z,79.18
2022-09-23T04:59:05.244Z,79.18
2022-09-23T05:00:05.212Z,79.04
2022-09-23T05:01:05.545Z,79.18
2022-09-23T05:02:05.354Z,79.18
2022-09-23T05:03:05.242Z,79.08
2022-09-23T05:04:05.211Z,78.77
2022-09-23T05:05:05.170Z,79.28
2022-09-23T05:06:05.145Z,78.97
2022-09-23T05:07:05.155Z,78.87
2022-09-23T05:08:05.156Z,79.18
2022-09-23T05:09:05.131Z,79.69
2022-09-23T05:10:05.102Z,79.32
2022-09-23T05:11:05.092Z,79.42
2022-09-23T05:12:05.081Z,79.69
2022-09-23T05:13:05.074Z,79.52
2022-09-23T05:14:05.068Z,79.59
2022-09-23T05:15:05.081Z,79.69
2022-09-23T05:16:05.122Z,79.73
2022-09-23T05:17:05.030Z,79.49
2022-09-23T05:18:05.019Z,79.59
2022-09-23T05:19:05.035Z,79.69
2022-09-23T05:20:04.995Z,79.28
2022-09-23T05:21:04.987Z,79.28
2022-09-23T05:22:04.971Z,79.08
2022-09-23T05:23:04.982Z,79.38
2022-09-23T05:24:04.984Z,79.08
2022-09-23T05:25:04.942Z,79.04
2022-09-23T05:26:04.928Z,79.08
2022-09-23T05:27:04.920Z,79.38
2022-09-23T05:28:04.907Z,79.04
2022-09-23T05:29:04.907Z,79.04
2022-09-23T05:30:04.886Z,78.53
2022-09-23T05:31:04.963Z,79.08
2022-09-23T05:32:04.923Z,78.94
2022-09-23T05:33:04.855Z,79.04
2022-09-23T05:34:04.891Z,78.97
2022-09-23T05:35:04.852Z,78.67
2022-09-23T05:36:04.822Z,78.56
2022-09-23T05:37:04.814Z,79.08
2022-09-23T05:38:04.802Z,79.49
2022-09-23T05:39:04.813Z,79.18
2022-09-23T05:40:04.844Z,79.59
2022-09-23T05:41:04.771Z,79.38
2022-09-23T05:42:04.758Z,79.63
2022-09-23T05:43:04.750Z,79.63
2022-09-23T05:44:04.763Z,79.83
2022-09-23T05:45:04.727Z,80.86
2022-09-23T05:46:07.974Z,80.55
2022-09-23T05:47:04.781Z,80.76
2022-09-23T05:48:04.694Z,80.45
2022-09-23T05:49:04.762Z,80.55
2022-09-23T05:50:04.673Z,80.62
2022-09-23T05:51:04.680Z,79.80
2022-09-23T05:52:04.652Z,79.49
2022-09-23T05:53:04.643Z,79.69
2022-09-23T05:54:04.670Z,79.24
2022-09-23T05:55:04.620Z,79.75
2022-09-23T05:57:05.142Z,78.76
2022-09-23T05:58:04.586Z,78.25
2022-09-23T05:59:04.589Z,77.23
2022-09-23T06:00:04.565Z,77.29
2022-09-23T06:01:04.555Z,76.88
2022-09-23T06:02:04.558Z,76.23
2022-09-23T06:03:04.573Z,75.99
2022-09-23T06:04:04.528Z,75.07
2022-09-23T06:05:04.530Z,74.63
2022-09-23T06:06:04.501Z,74.08
2022-09-23T06:07:04.507Z,73.23
2022-09-23T06:08:04.476Z,72.72
2022-09-23T06:09:04.484Z,72.58
2022-09-23T06:10:04.455Z,71.67
2022-09-23T06:11:04.449Z,71.53
2022-09-23T06:12:04.445Z,70.89
2022-09-23T06:13:07.235Z,70.44
2022-09-23T06:14:04.579Z,69.93
2022-09-23T06:15:04.422Z,69.87
2022-09-23T06:16:04.426Z,68.13
2022-09-23T06:17:04.387Z,68.54
2022-09-23T06:18:05.171Z,68.44
2022-09-23T06:19:05.656Z,68.21
2022-09-23T06:20:04.369Z,68.10
2022-09-23T06:21:04.363Z,67.66
2022-09-23T06:22:04.391Z,67.46
2022-09-23T06:23:08.490Z,67.22
2022-09-23T06:24:05.429Z,66.61
2022-09-23T06:25:04.322Z,66.00
2022-09-23T06:26:04.293Z,66.41
2022-09-23T06:27:04.274Z,66.31
2022-09-23T06:28:04.261Z,67.22
2022-09-23T06:29:04.268Z,66.92
2022-09-23T06:30:04.240Z,67.22
2022-09-23T06:31:04.293Z,66.92
2022-09-23T06:32:04.218Z,66.58
2022-09-23T06:33:04.207Z,66.58
2022-09-23T06:34:11.920Z,66.79
2022-09-23T06:35:05.188Z,66.58
2022-09-23T06:36:04.179Z,66.28
2022-09-23T06:37:15.485Z,66.08
2022-09-23T06:38:05.186Z,66.76
2022-09-23T06:39:04.176Z,65.81
2022-09-23T06:40:04.215Z,65.88
2022-09-23T06:41:04.120Z,65.14
2022-09-23T06:42:04.106Z,63.86
2022-09-23T06:43:04.098Z,63.66
2022-09-23T06:44:04.111Z,63.23
2022-09-23T06:45:04.077Z,62.21
2022-09-23T06:46:04.281Z,62.38
2022-09-23T06:47:04.080Z,62.29
2022-09-23T06:48:04.118Z,61.55
2022-09-23T06:49:04.101Z,60.91
2022-09-23T06:50:04.033Z,60.48
2022-09-23T06:51:04.020Z,60.27
2022-09-23T06:52:04.002Z,59.97
2022-09-23T06:53:03.989Z,58.73
2022-09-23T06:54:04.040Z,58.91
2022-09-23T06:55:04.081Z,58.58
2022-09-23T06:56:03.959Z,58.34
2022-09-23T06:57:03.954Z,57.51
2022-09-23T06:58:03.937Z,57.18
2022-09-23T06:59:03.936Z,56.42
2022-09-23T07:00:03.916Z,55.89
2022-09-23T07:01:03.905Z,55.08
2022-09-23T07:02:04.042Z,54.33
2022-09-23T07:03:03.973Z,53.40
2022-09-23T07:04:03.894Z,52.77
2022-09-23T07:05:03.881Z,52.14
2022-09-23T07:06:03.858Z,52.32
2022-09-23T07:07:03.848Z,51.89
2022-09-23T07:08:03.836Z,51.17
2022-09-23T07:09:03.819Z,49.23
2022-09-23T07:10:03.819Z,47.61
2022-09-23T07:11:03.813Z,47.88
2022-09-23T07:12:03.784Z,49.29
2022-09-23T07:13:03.776Z,47.88
2022-09-23T07:14:03.773Z,47.76
2022-09-23T07:15:03.756Z,46.96
2022-09-23T07:16:03.773Z,47.96
2022-09-23T07:17:03.733Z,47.94
2022-09-23T07:18:03.730Z,48.11
2022-09-23T07:19:03.723Z,47.22
2022-09-23T07:20:03.702Z,47.39
2022-09-23T07:21:03.707Z,46.59
2022-09-23T07:22:03.679Z,46.92
2022-09-23T07:23:03.670Z,47.19
2022-09-23T07:24:03.716Z,47.60
2022-09-23T07:25:03.649Z,46.47
2022-09-23T07:26:03.633Z,45.65
2022-09-23T07:27:03.642Z,45.13
2022-09-23T07:28:03.620Z,45.53
2022-09-23T07:29:03.614Z,45.33
2022-09-23T07:30:03.633Z,45.63
2022-09-23T07:31:03.615Z,46.20
2022-09-23T07:32:13.382Z,45.40
2022-09-23T07:33:13.454Z,45.10
2022-09-23T07:34:04.653Z,45.21
2022-09-23T07:35:03.571Z,45.01
2022-09-23T07:36:03.531Z,44.79
2022-09-23T07:37:03.583Z,45.10
2022-09-23T07:38:03.513Z,45.29
2022-09-23T07:39:03.559Z,44.67
2022-09-23T07:40:03.605Z,44.35
2022-09-23T07:41:03.484Z,43.52
2022-09-23T07:42:03.468Z,43.63
2022-09-23T07:43:03.481Z,44.45
2022-09-23T07:44:03.462Z,44.84
2022-09-23T07:45:03.434Z,44.74
2022-09-23T07:46:03.560Z,44.84
2022-09-23T07:47:03.428Z,43.65
2022-09-23T07:48:03.404Z,43.85
2022-09-23T07:49:03.409Z,43.85
2022-09-23T07:50:03.505Z,42.63
2022-09-23T07:51:03.371Z,43.63
2022-09-23T07:52:03.364Z,43.65
2022-09-23T07:53:03.351Z,43.25
2022-09-23T07:54:03.357Z,44.12
2022-09-23T07:55:03.396Z,43.13
2022-09-23T07:56:03.326Z,42.43
2022-09-23T07:57:03.330Z,42.61
2022-09-23T07:58:03.349Z,43.30
2022-09-23T07:59:03.434Z,43.08
2022-09-23T08:00:03.282Z,42.99
2022-09-23T08:01:03.271Z,41.67
2022-09-23T08:02:03.360Z,41.28
2022-09-23T08:03:03.322Z,42.29
2022-09-23T08:04:03.255Z,41.99
2022-09-23T08:05:03.229Z,42.89
2022-09-23T08:06:03.224Z,43.29
2022-09-23T08:07:03.213Z,42.81
2022-09-23T08:08:03.213Z,43.21
2022-09-23T08:09:03.304Z,43.11
2022-09-23T08:10:03.179Z,42.61
2022-09-23T08:11:03.177Z,43.03
2022-09-23T08:12:03.161Z,42.91
2022-09-23T08:13:03.168Z,42.91
2022-09-23T08:14:03.151Z,42.41
2022-09-23T08:15:03.145Z,43.63
2022-09-23T08:16:03.210Z,42.71
2022-09-23T08:17:03.107Z,42.91
2022-09-23T08:18:03.127Z,42.51
2022-09-23T08:19:03.164Z,41.20
2022-09-23T08:20:03.077Z,42.11
2022-09-23T08:21:03.083Z,42.71
2022-09-23T08:22:03.056Z,43.23
2022-09-23T08:23:03.043Z,42.63
2022-09-23T08:24:03.106Z,42.91
2022-09-23T08:25:03.094Z,42.19
2022-09-23T08:26:03.024Z,42.07
2022-09-23T08:27:03.039Z,41.08
2022-09-23T08:28:03.023Z,41.47
2022-09-23T08:29:02.998Z,42.29
2022-09-23T08:30:02.976Z,41.89
2022-09-23T08:31:03.060Z,41.99
2022-09-23T08:32:02.976Z,42.93
2022-09-23T08:33:02.944Z,43.35
2022-09-23T08:34:03.069Z,42.95
2022-09-23T08:35:02.921Z,43.05
2022-09-23T08:36:02.911Z,43.85
2022-09-23T08:37:02.902Z,43.52
2022-09-23T08:38:02.939Z,43.13
2022-09-23T08:39:02.915Z,43.13
2022-09-23T08:40:02.874Z,42.75
2022-09-23T08:41:02.864Z,43.69
2022-09-23T08:42:02.850Z,44.09
2022-09-23T08:43:02.841Z,44.09
2022-09-23T08:44:02.894Z,43.27
2022-09-23T08:45:02.819Z,43.87
2022-09-23T08:46:02.876Z,43.67
2022-09-23T08:47:02.815Z,44.37
2022-09-23T08:48:02.793Z,44.07
2022-09-23T08:49:02.788Z,44.46
2022-09-23T08:50:02.790Z,44.15
2022-09-23T08:51:02.756Z,44.46
2022-09-23T08:52:02.749Z,44.35
2022-09-23T08:53:02.740Z,44.32
2022-09-23T08:54:02.902Z,43.93
2022-09-23T08:55:02.724Z,42.43
2022-09-23T08:56:02.704Z,42.91
2022-09-23T08:57:02.693Z,42.61
2022-09-23T08:58:23.808Z,43.01
2022-09-23T08:59:03.680Z,42.83
2022-09-23T09:00:02.666Z,42.43
2022-09-23T09:01:02.737Z,43.43
2022-09-23T09:02:02.646Z,44.35
2022-09-23T09:03:02.696Z,44.45
2022-09-23T09:04:02.719Z,44.74
2022-09-23T09:05:02.618Z,45.14
2022-09-23T09:06:02.603Z,44.40
2022-09-23T09:07:24.569Z,44.01
2022-09-23T09:08:03.599Z,42.29
2022-09-23T09:09:02.673Z,42.47
2022-09-23T09:10:02.560Z,41.28
2022-09-23T09:11:02.547Z,41.97
2022-09-23T09:12:02.541Z,42.01
2022-09-23T09:13:02.530Z,43.47
2022-09-23T09:14:02.531Z,43.29
2022-09-23T09:15:02.567Z,43.19
2022-09-23T09:16:02.672Z,43.27
2022-09-23T09:17:02.607Z,44.37
2022-09-23T09:18:02.478Z,43.25
2022-09-23T09:19:02.542Z,42.43
2022-09-23T09:20:02.455Z,42.93
2022-09-23T09:21:02.447Z,43.11
2022-09-23T09:22:02.453Z,41.30
2022-09-23T09:23:02.423Z,41.28
2022-09-23T09:24:02.547Z,40.78
2022-09-23T09:25:02.404Z,41.36
2022-09-23T09:26:02.397Z,40.86
2022-09-23T09:27:02.385Z,40.46
2022-09-23T09:28:02.376Z,40.66
2022-09-23T09:29:17.247Z,41.66
2022-09-23T09:30:03.354Z,40.05
2022-09-23T09:31:02.368Z,40.44
2022-09-23T09:32:02.335Z,40.24
2022-09-23T09:33:02.323Z,39.75
2022-09-23T09:34:02.335Z,40.36
2022-09-23T09:35:02.339Z,41.71
2022-09-23T09:36:02.295Z,42.01
2022-09-23T09:37:06.811Z,41.61
2022-09-23T09:38:03.273Z,42.39
2022-09-23T09:39:02.313Z,43.11
2022-09-23T09:40:02.256Z,41.89
2022-09-23T09:41:02.240Z,41.25
2022-09-23T09:42:02.235Z,39.37
2022-09-23T09:43:02.223Z,39.97
2022-09-23T09:44:02.278Z,40.34
2022-09-23T09:45:02.199Z,41.16
2022-09-23T09:46:02.191Z,39.33
2022-09-23T09:47:02.297Z,39.92
2022-09-23T09:48:02.211Z,38.92
2022-09-23T09:49:02.261Z,39.21
2022-09-23T09:50:02.161Z,39.09
2022-09-23T09:51:02.155Z,38.78
2022-09-23T09:52:02.130Z,39.06
2022-09-23T09:53:02.065Z,39.07
2022-09-23T09:54:02.074Z,38.58
2022-09-23T09:55:02.108Z,38.90
2022-09-23T09:56:05.005Z,39.09
2022-09-23T09:57:02.023Z,37.29
2022-09-23T09:58:02.140Z,37.39
2022-09-23T09:59:02.140Z,38.71
2022-09-23T10:00:01.994Z,40.14
2022-09-23T10:01:02.087Z,41.36
2022-09-23T10:02:01.972Z,42.25
2022-09-23T10:03:01.985Z,40.06
2022-09-23T10:04:01.984Z,40.76
2022-09-23T10:05:01.940Z,39.67
2022-09-23T10:06:01.935Z,38.85
2022-09-23T10:07:01.959Z,39.15
2022-09-23T10:08:01.918Z,39.95
2022-09-23T10:09:01.991Z,38.95
2022-09-23T10:10:15.699Z,39.54
2022-09-23T10:11:02.883Z,38.65
2022-09-23T10:12:01.871Z,39.45
2022-09-23T10:13:01.863Z,38.56
2022-09-23T10:14:01.879Z,38.24
2022-09-23T10:15:01.838Z,38.26
2022-09-23T10:16:01.832Z,37.74
2022-09-23T10:17:01.838Z,37.64
2022-09-23T10:18:01.810Z,37.56
2022-09-23T10:19:01.969Z,38.18
2022-09-23T10:20:01.791Z,39.11
2022-09-23T10:21:01.779Z,40.52
2022-09-23T10:22:01.769Z,40.42
2022-09-23T10:23:01.775Z,38.59
2022-09-23T10:24:01.776Z,38.57
2022-09-23T10:25:01.736Z,37.92
2022-09-23T10:26:01.729Z,39.94
2022-09-23T10:27:01.738Z,41.08
2022-09-23T10:28:04.787Z,42.21
2022-09-23T10:29:02.796Z,41.83
2022-09-23T10:30:01.687Z,41.53
2022-09-23T10:31:01.724Z,41.74
2022-09-23T10:32:01.673Z,42.35
2022-09-23T10:33:01.656Z,43.19
2022-09-23T10:34:01.669Z,43.32
2022-09-23T10:35:01.811Z,43.93
2022-09-23T10:36:01.629Z,44.98
2022-09-23T10:37:01.615Z,43.50
2022-09-23T10:38:01.607Z,44.30
2022-09-23T10:39:01.775Z,44.92
2022-09-23T10:40:01.587Z,45.14
2022-09-23T10:41:01.745Z,45.95
2022-09-23T10:42:01.575Z,47.30
2022-09-23T10:43:01.569Z,47.32
2022-09-23T10:44:01.548Z,47.42
2022-09-23T10:45:01.578Z,47.32
2022-09-23T10:46:01.627Z,47.19
2022-09-23T10:47:01.526Z,46.22
2022-09-23T10:48:01.528Z,47.22
2022-09-23T10:49:01.503Z,47.64
2022-09-23T10:50:01.489Z,47.04
2022-09-23T10:51:01.479Z,47.24
2022-09-23T10:52:01.468Z,48.35
2022-09-23T10:53:01.467Z,48.07
2022-09-23T10:54:01.447Z,48.17
2022-09-23T10:55:01.466Z,49.48
2022-09-23T10:56:01.436Z,48.19
2022-09-23T10:57:01.412Z,48.17
2022-09-23T10:58:01.419Z,48.99
2022-09-23T10:59:01.393Z,49.19
2022-09-23T11:00:01.386Z,49.27
2022-09-23T11:01:01.449Z,49.80
2022-09-23T11:02:01.362Z,50.51
2022-09-23T11:03:01.360Z,49.80
2022-09-23T11:04:01.581Z,49.10
2022-09-23T11:05:01.401Z,50.00
2022-09-23T11:06:01.322Z,49.40
2022-09-23T11:07:01.314Z,48.11
2022-09-23T11:08:01.310Z,48.92
2022-09-23T11:09:01.289Z,49.22
2022-09-23T11:10:01.281Z,49.12
2022-09-23T11:11:01.299Z,48.72
2022-09-23T11:12:01.259Z,49.90
2022-09-23T11:13:01.260Z,49.52
2022-09-23T11:14:01.238Z,49.70
2022-09-23T11:15:01.233Z,49.22
2022-09-23T11:16:01.221Z,50.23
2022-09-23T11:17:01.347Z,49.42
2022-09-23T11:18:01.219Z,50.56
2022-09-23T11:19:01.215Z,49.32
2022-09-23T11:20:01.184Z,49.32
2022-09-23T11:21:01.168Z,47.61
2022-09-23T11:22:01.164Z,47.41
2022-09-23T11:23:01.162Z,48.11
2022-09-23T11:24:01.215Z,47.81
2022-09-23T11:25:01.125Z,47.51
2022-09-23T11:26:01.121Z,47.91
2022-09-23T11:27:01.143Z,47.51
2022-09-23T11:28:01.118Z,47.81
2022-09-23T11:29:01.085Z,47.71
2022-09-23T11:30:01.078Z,47.81
2022-09-23T11:31:01.185Z,47.61
2022-09-23T11:32:01.054Z,46.78
2022-09-23T11:33:01.143Z,47.28
2022-09-23T11:34:01.048Z,47.79
2022-09-23T11:35:01.033Z,47.89
2022-09-23T11:36:01.015Z,48.69
2022-09-23T11:37:01.003Z,49.50
2022-09-23T11:38:01.018Z,49.62
2022-09-23T11:39:00.980Z,49.32
2022-09-23T11:40:00.974Z,50.33
2022-09-23T11:41:01.074Z,50.33
2022-09-23T11:42:00.952Z,49.02
2022-09-23T11:43:00.979Z,49.95
2022-09-23T11:44:00.957Z,50.65
2022-09-23T11:45:00.926Z,50.15
2022-09-23T11:46:00.941Z,50.15
2022-09-23T11:47:00.899Z,49.15
2022-09-23T11:48:00.899Z,48.64
2022-09-23T11:49:00.881Z,49.65
2022-09-23T11:50:00.877Z,49.24
2022-09-23T11:51:00.864Z,49.44
2022-09-23T11:52:00.848Z,48.96
2022-09-23T11:53:00.846Z,49.47
2022-09-23T11:54:00.908Z,49.77
2022-09-23T11:55:03.068Z,50.07
2022-09-23T11:56:00.805Z,50.27
2022-09-23T11:57:00.796Z,50.78
2022-09-23T11:58:00.792Z,50.98
2022-09-23T11:59:00.903Z,50.48
2022-09-23T12:00:00.765Z,50.35
2022-09-23T12:01:01.379Z,49.85
2022-09-23T12:02:10.932Z,49.85
2022-09-23T12:03:06.142Z,48.94
2022-09-23T12:04:10.528Z,49.22
2022-09-23T12:05:01.958Z,49.22
2022-09-23T12:06:00.815Z,49.32
2022-09-23T12:07:00.693Z,49.24
2022-09-23T12:08:00.686Z,50.53
2022-09-23T12:09:00.670Z,50.45
2022-09-23T12:10:00.653Z,49.22
2022-09-23T12:11:00.647Z,49.52
2022-09-23T12:12:00.641Z,49.22
2022-09-23T12:13:00.653Z,49.32
2022-09-23T12:14:00.694Z,49.32
2022-09-23T12:15:00.639Z,49.15
2022-09-23T12:16:00.591Z,48.24
2022-09-23T12:17:00.625Z,49.32
2022-09-23T12:18:05.873Z,49.24
2022-09-23T12:19:00.564Z,48.41
2022-09-23T12:20:00.552Z,47.91
2022-09-23T12:21:00.562Z,48.21
2022-09-23T12:22:00.528Z,47.31
2022-09-23T12:23:00.532Z,45.70
2022-09-23T12:24:00.521Z,45.98
2022-09-23T12:25:00.503Z,46.00
2022-09-23T12:26:00.483Z,47.31
2022-09-23T12:27:00.498Z,47.51
2022-09-23T12:28:00.531Z,47.91
2022-09-23T12:29:00.455Z,47.71
2022-09-23T12:30:00.456Z,47.91
2022-09-23T12:31:00.622Z,47.41
2022-09-23T12:32:00.421Z,47.31
2022-09-23T12:33:00.426Z,45.90
2022-09-23T12:34:00.473Z,46.10
2022-09-23T12:35:00.391Z,46.10
2022-09-23T12:36:00.390Z,45.39
2022-09-23T12:37:00.382Z,45.39
2022-09-23T12:38:00.367Z,45.01
2022-09-23T12:39:00.350Z,45.19
2022-09-23T12:40:00.336Z,45.29
2022-09-23T12:41:00.334Z,45.42
2022-09-23T12:42:00.314Z,46.02
2022-09-23T12:43:00.321Z,47.23
2022-09-23T12:44:00.338Z,47.31
2022-09-23T12:45:00.288Z,47.51
2022-09-23T12:46:00.313Z,47.51
2022-09-23T12:47:00.295Z,47.03
2022-09-23T12:48:00.282Z,46.80
2022-09-23T12:49:00.244Z,46.10
2022-09-23T12:50:00.232Z,46.22
2022-09-23T12:51:00.243Z,46.02
2022-09-23T12:52:00.206Z,45.90
2022-09-23T12:53:00.210Z,45.79